Decoded Metar for KSKF (SAN ANTONIO in TX, USA) (IATA:SKF) | Meteo·Mobile Aviation Weather
aviador You're here:

KSKF Decoded Metar

SAN ANTONIO in TX, USA
Report Time2019-03-20 22:56:00
UTC Time2019-03-20 23:28:50
Flight Rules vfr VFR
Wind180° at 07 kt
W.Decomp.*RWY 15: 6.4 kt HW 2.7 kt RCW
W.Rank180° ranks 13
Current wind is below 180° avg. (7.1)
Visibility9999 m
Phenomena:N/A
Clouds:N/A
Expected CloudBase > 4,000 ft AGL from Temp-Dew spread
CeilingNone
Temp22°C (ISA +8)
Dew Point12°C (53% RH)
AAT20.1°C
QNH1020 hPa
Density Alt1,617 ft
Elevation689 ft
Report Wrong Elevation
Raw Report
KSKF 202256Z AUTO 18007KT 10SM CLR 22/12 A3013 RMK AO2 SLP200
T02210123 $=

Extra information for KSKF:More info

Metar Taf Metar & Taf Last 4 Metars F.Rules Stats Wind Profile Meteogram Temp Stats Airport Information Weather charts Add Link Nearby VenuesMetar ALERT Operation Metar Decoded Social comments

AIRNAV info for KSKF